Terminal Aerodrome Forecast
Issued by NWS

Home | Current Version | Previous Version | Text Only | Print | Product List | Glossary On
Versions: 1 2 3 4 5 6 7 8 9 10 11 12 13 14 15 16 17 18 19 20 21 22 23 24 25
000
FTUS46 KSGX 072334
TAFSAN
TAF
KSAN 072334Z 0800/0906 26008KT P6SM BKN018
      TEMPO 0800/0801 SCT018
     FM080200 VRB04KT P6SM OVC016
     FM082000 26009KT P6SM BKN020
     FM090200 VRB04KT P6SM OVC020=

USA.gov is the U.S. government's official web portal to all federal, state and local government web resources and services.